sensor_id;sensor_type;location;lat;lon;timestamp;temperature;humidity
5358;DHT22;2702;51.014;7.170;2023-03-24T00:00:11;11.60;99.90
5358;DHT22;2702;51.014;7.170;2023-03-24T00:02:39;11.60;99.90
5358;DHT22;2702;51.014;7.170;2023-03-24T00:05:12;11.60;99.90
5358;DHT22;2702;51.014;7.170;2023-03-24T00:07:39;11.60;99.90
5358;DHT22;2702;51.014;7.170;2023-03-24T00:10:06;11.60;99.90
5358;DHT22;2702;51.014;7.170;2023-03-24T00:12:35;11.60;99.90
5358;DHT22;2702;51.014;7.170;2023-03-24T00:15:09;11.60;99.90
5358;DHT22;2702;51.014;7.170;2023-03-24T00:17:35;11.70;99.90
5358;DHT22;2702;51.014;7.170;2023-03-24T00:20:07;11.70;99.90
5358;DHT22;2702;51.014;7.170;2023-03-24T00:22:39;11.70;99.90
5358;DHT22;2702;51.014;7.170;2023-03-24T00:25:09;11.70;99.90
5358;DHT22;2702;51.014;7.170;2023-03-24T00:27:36;11.80;99.90
5358;DHT22;2702;51.014;7.170;2023-03-24T00:30:08;11.70;99.90
5358;DHT22;2702;51.014;7.170;2023-03-24T00:32:36;11.80;99.90
5358;DHT22;2702;51.014;7.170;2023-03-24T00:35:05;11.70;99.90
5358;DHT22;2702;51.014;7.170;2023-03-24T00:37:34;11.80;99.90
5358;DHT22;2702;51.014;7.170;2023-03-24T00:40:11;11.80;99.90
5358;DHT22;2702;51.014;7.170;2023-03-24T00:42:39;11.80;99.90
5358;DHT22;2702;51.014;7.170;2023-03-24T00:45:07;11.80;99.90
5358;DHT22;2702;51.014;7.170;2023-03-24T00:47:34;11.90;99.90
5358;DHT22;2702;51.014;7.170;2023-03-24T00:50:05;11.90;99.90
5358;DHT22;2702;51.014;7.170;2023-03-24T00:52:32;11.90;99.90
5358;DHT22;2702;51.014;7.170;2023-03-24T00:55:03;11.90;99.90
5358;DHT22;2702;51.014;7.170;2023-03-24T00:57:30;11.90;99.90
5358;DHT22;2702;51.014;7.170;2023-03-24T01:00:01;12.00;99.90
5358;DHT22;2702;51.014;7.170;2023-03-24T01:02:34;12.00;99.90
5358;DHT22;2702;51.014;7.170;2023-03-24T01:05:00;12.00;99.90
5358;DHT22;2702;51.014;7.170;2023-03-24T01:07:28;12.00;99.90
5358;DHT22;2702;51.014;7.170;2023-03-24T01:09:56;12.00;99.90
5358;DHT22;2702;51.014;7.170;2023-03-24T01:12:31;12.00;99.90
5358;DHT22;2702;51.014;7.170;2023-03-24T01:14:59;11.90;99.90
5358;DHT22;2702;51.014;7.170;2023-03-24T01:17:25;11.90;99.90
5358;DHT22;2702;51.014;7.170;2023-03-24T01:19:52;11.90;99.90
5358;DHT22;2702;51.014;7.170;2023-03-24T01:22:19;11.90;99.90
5358;DHT22;2702;51.014;7.170;2023-03-24T01:24:46;11.90;99.90
5358;DHT22;2702;51.014;7.170;2023-03-24T01:27:13;11.90;99.90
5358;DHT22;2702;51.014;7.170;2023-03-24T01:29:40;11.90;99.90
5358;DHT22;2702;51.014;7.170;2023-03-24T01:32:06;11.90;99.90
5358;DHT22;2702;51.014;7.170;2023-03-24T01:34:32;11.90;99.90
5358;DHT22;2702;51.014;7.170;2023-03-24T01:36:59;11.90;99.90
5358;DHT22;2702;51.014;7.170;2023-03-24T01:39:25;11.90;99.90
5358;DHT22;2702;51.014;7.170;2023-03-24T01:41:51;11.90;99.90
5358;DHT22;2702;51.014;7.170;2023-03-24T01:44:33;12.00;99.90
5358;DHT22;2702;51.014;7.170;2023-03-24T01:47:02;12.00;99.90
5358;DHT22;2702;51.014;7.170;2023-03-24T01:49:42;12.00;99.90
5358;DHT22;2702;51.014;7.170;2023-03-24T01:52:15;12.10;99.90
5358;DHT22;2702;51.014;7.170;2023-03-24T01:54:47;12.10;99.90
5358;DHT22;2702;51.014;7.170;2023-03-24T01:57:21;12.10;99.90
5358;DHT22;2702;51.014;7.170;2023-03-24T01:59:52;12.20;99.90
5358;DHT22;2702;51.014;7.170;2023-03-24T02:02:19;12.20;99.90
5358;DHT22;2702;51.014;7.170;2023-03-24T02:04:56;12.20;99.90
5358;DHT22;2702;51.014;7.170;2023-03-24T02:10:04;12.20;99.90
5358;DHT22;2702;51.014;7.170;2023-03-24T02:12:31;12.20;99.90
5358;DHT22;2702;51.014;7.170;2023-03-24T02:14:58;12.20;99.90
5358;DHT22;2702;51.014;7.170;2023-03-24T02:23:12;12.20;99.90
5358;DHT22;2702;51.014;7.170;2023-03-24T02:25:57;12.30;99.90
5358;DHT22;2702;51.014;7.170;2023-03-24T02:28:58;12.20;99.90
5358;DHT22;2702;51.014;7.170;2023-03-24T02:31:51;12.20;99.90
5358;DHT22;2702;51.014;7.170;2023-03-24T02:37:47;12.20;99.90
5358;DHT22;2702;51.014;7.170;2023-03-24T02:40:42;12.30;99.90
5358;DHT22;2702;51.014;7.170;2023-03-24T02:52:47;12.30;99.90
5358;DHT22;2702;51.014;7.170;2023-03-24T02:57:41;12.30;99.90
5358;DHT22;2702;51.014;7.170;2023-03-24T03:02:51;12.30;99.90
5358;DHT22;2702;51.014;7.170;2023-03-24T03:05:27;12.40;99.90
5358;DHT22;2702;51.014;7.170;2023-03-24T03:07:58;12.30;99.90
5358;DHT22;2702;51.014;7.170;2023-03-24T03:10:35;12.30;99.90
5358;DHT22;2702;51.014;7.170;2023-03-24T03:13:08;12.30;99.90
5358;DHT22;2702;51.014;7.170;2023-03-24T03:15:40;12.30;99.90
5358;DHT22;2702;51.014;7.170;2023-03-24T03:18:13;12.30;99.90
5358;DHT22;2702;51.014;7.170;2023-03-24T03:20:49;12.30;99.90
5358;DHT22;2702;51.014;7.170;2023-03-24T03:23:28;12.20;99.90
5358;DHT22;2702;51.014;7.170;2023-03-24T03:25:59;12.30;99.90
5358;DHT22;2702;51.014;7.170;2023-03-24T03:28:32;12.20;99.90
5358;DHT22;2702;51.014;7.170;2023-03-24T03:31:05;12.20;99.90
5358;DHT22;2702;51.014;7.170;2023-03-24T03:34:23;12.20;99.90
5358;DHT22;2702;51.014;7.170;2023-03-24T03:36:30;12.30;99.90
5358;DHT22;2702;51.014;7.170;2023-03-24T03:41:29;12.30;99.90
5358;DHT22;2702;51.014;7.170;2023-03-24T03:43:55;12.30;99.90
5358;DHT22;2702;51.014;7.170;2023-03-24T03:46:21;12.30;99.90
5358;DHT22;2702;51.014;7.170;2023-03-24T03:48:47;12.20;99.90
5358;DHT22;2702;51.014;7.170;2023-03-24T03:51:14;12.30;99.90
5358;DHT22;2702;51.014;7.170;2023-03-24T03:53:47;12.30;99.90
5358;DHT22;2702;51.014;7.170;2023-03-24T03:56:19;12.30;99.90
5358;DHT22;2702;51.014;7.170;2023-03-24T03:58:47;12.30;99.90
5358;DHT22;2702;51.014;7.170;2023-03-24T04:01:17;12.30;99.90
5358;DHT22;2702;51.014;7.170;2023-03-24T04:04:40;12.30;99.90
5358;DHT22;2702;51.014;7.170;2023-03-24T04:08:07;12.40;99.90
5358;DHT22;2702;51.014;7.170;2023-03-24T04:10:23;12.30;99.90
5358;DHT22;2702;51.014;7.170;2023-03-24T04:15:59;12.40;99.90
5358;DHT22;2702;51.014;7.170;2023-03-24T04:21:18;12.40;99.90
5358;DHT22;2702;51.014;7.170;2023-03-24T04:26:55;12.50;99.90
5358;DHT22;2702;51.014;7.170;2023-03-24T04:34:52;12.50;99.90
5358;DHT22;2702;51.014;7.170;2023-03-24T04:37:31;12.50;99.90
5358;DHT22;2702;51.014;7.170;2023-03-24T04:40:00;12.60;99.90
5358;DHT22;2702;51.014;7.170;2023-03-24T04:42:34;12.60;99.90
5358;DHT22;2702;51.014;7.170;2023-03-24T04:45:03;12.60;99.90
5358;DHT22;2702;51.014;7.170;2023-03-24T04:47:33;12.60;99.90
5358;DHT22;2702;51.014;7.170;2023-03-24T04:50:07;12.60;99.90
5358;DHT22;2702;51.014;7.170;2023-03-24T04:52:40;12.60;99.90
5358;DHT22;2702;51.014;7.170;2023-03-24T04:57:50;12.60;99.90
5358;DHT22;2702;51.014;7.170;2023-03-24T05:00:16;12.60;99.90
5358;DHT22;2702;51.014;7.170;2023-03-24T05:02:43;12.60;99.90
5358;DHT22;2702;51.014;7.170;2023-03-24T05:05:10;12.60;99.90
5358;DHT22;2702;51.014;7.170;2023-03-24T05:07:36;12.40;99.90
5358;DHT22;2702;51.014;7.170;2023-03-24T05:10:02;12.10;99.90
5358;DHT22;2702;51.014;7.170;2023-03-24T05:12:29;11.90;99.90
5358;DHT22;2702;51.014;7.170;2023-03-24T05:14:55;11.60;99.90
5358;DHT22;2702;51.014;7.170;2023-03-24T05:17:21;11.50;99.90
5358;DHT22;2702;51.014;7.170;2023-03-24T05:19:47;11.40;99.90
5358;DHT22;2702;51.014;7.170;2023-03-24T05:22:13;11.30;99.90
5358;DHT22;2702;51.014;7.170;2023-03-24T05:24:39;11.30;99.90
5358;DHT22;2702;51.014;7.170;2023-03-24T05:27:05;11.20;99.90
5358;DHT22;2702;51.014;7.170;2023-03-24T05:29:31;11.20;99.90
5358;DHT22;2702;51.014;7.170;2023-03-24T05:31:58;11.20;99.90
5358;DHT22;2702;51.014;7.170;2023-03-24T05:34:23;11.10;99.90
5358;DHT22;2702;51.014;7.170;2023-03-24T05:36:49;11.10;99.90
5358;DHT22;2702;51.014;7.170;2023-03-24T05:39:15;11.10;99.90
5358;DHT22;2702;51.014;7.170;2023-03-24T05:41:41;11.10;99.90
5358;DHT22;2702;51.014;7.170;2023-03-24T05:44:07;11.10;99.90
5358;DHT22;2702;51.014;7.170;2023-03-24T05:46:33;11.10;99.90
5358;DHT22;2702;51.014;7.170;2023-03-24T05:48:59;11.10;99.90
5358;DHT22;2702;51.014;7.170;2023-03-24T05:51:25;11.10;99.90
5358;DHT22;2702;51.014;7.170;2023-03-24T05:53:51;11.00;99.90
5358;DHT22;2702;51.014;7.170;2023-03-24T05:56:17;11.00;99.90
5358;DHT22;2702;51.014;7.170;2023-03-24T05:58:42;11.00;99.90
5358;DHT22;2702;51.014;7.170;2023-03-24T06:01:09;10.90;99.90
5358;DHT22;2702;51.014;7.170;2023-03-24T06:03:37;10.90;99.90
5358;DHT22;2702;51.014;7.170;2023-03-24T06:06:07;10.90;99.90
5358;DHT22;2702;51.014;7.170;2023-03-24T06:08:34;10.90;99.90
5358;DHT22;2702;51.014;7.170;2023-03-24T06:11:02;10.90;99.90
5358;DHT22;2702;51.014;7.170;2023-03-24T06:13:29;10.80;99.90
5358;DHT22;2702;51.014;7.170;2023-03-24T06:15:55;10.80;99.90
5358;DHT22;2702;51.014;7.170;2023-03-24T06:18:26;10.80;99.90
5358;DHT22;2702;51.014;7.170;2023-03-24T06:20:53;10.70;99.90
5358;DHT22;2702;51.014;7.170;2023-03-24T06:23:22;10.60;99.90
5358;DHT22;2702;51.014;7.170;2023-03-24T06:25:48;10.60;99.90
5358;DHT22;2702;51.014;7.170;2023-03-24T06:28:15;10.50;99.90
5358;DHT22;2702;51.014;7.170;2023-03-24T06:30:45;10.50;99.90
5358;DHT22;2702;51.014;7.170;2023-03-24T06:33:12;10.50;99.90
5358;DHT22;2702;51.014;7.170;2023-03-24T06:35:39;10.60;99.90
5358;DHT22;2702;51.014;7.170;2023-03-24T06:38:06;10.60;99.90
5358;DHT22;2702;51.014;7.170;2023-03-24T06:40:32;10.60;99.90
5358;DHT22;2702;51.014;7.170;2023-03-24T06:42:59;10.60;99.90
5358;DHT22;2702;51.014;7.170;2023-03-24T06:45:25;10.60;99.90
5358;DHT22;2702;51.014;7.170;2023-03-24T06:47:54;10.60;99.90
5358;DHT22;2702;51.014;7.170;2023-03-24T06:50:22;10.60;99.90
5358;DHT22;2702;51.014;7.170;2023-03-24T06:52:52;10.70;99.90
5358;DHT22;2702;51.014;7.170;2023-03-24T06:55:18;10.70;99.90
5358;DHT22;2702;51.014;7.170;2023-03-24T06:57:46;10.70;99.90
5358;DHT22;2702;51.014;7.170;2023-03-24T07:00:12;10.70;99.90
5358;DHT22;2702;51.014;7.170;2023-03-24T07:02:38;10.50;99.90
5358;DHT22;2702;51.014;7.170;2023-03-24T07:05:05;10.30;99.90
5358;DHT22;2702;51.014;7.170;2023-03-24T07:07:33;10.30;99.90
5358;DHT22;2702;51.014;7.170;2023-03-24T07:10:00;10.20;99.90
5358;DHT22;2702;51.014;7.170;2023-03-24T07:12:27;10.10;99.90
5358;DHT22;2702;51.014;7.170;2023-03-24T07:14:52;10.00;99.90
5358;DHT22;2702;51.014;7.170;2023-03-24T07:17:20;9.90;99.90
5358;DHT22;2702;51.014;7.170;2023-03-24T07:19:46;9.90;99.90
5358;DHT22;2702;51.014;7.170;2023-03-24T07:22:12;9.80;99.90
5358;DHT22;2702;51.014;7.170;2023-03-24T07:24:38;9.70;99.90
5358;DHT22;2702;51.014;7.170;2023-03-24T07:27:04;9.70;99.90
5358;DHT22;2702;51.014;7.170;2023-03-24T07:29:30;9.70;99.90
5358;DHT22;2702;51.014;7.170;2023-03-24T07:31:56;9.80;99.90
5358;DHT22;2702;51.014;7.170;2023-03-24T07:34:26;9.90;99.90
5358;DHT22;2702;51.014;7.170;2023-03-24T07:36:52;9.90;99.90
5358;DHT22;2702;51.014;7.170;2023-03-24T07:39:19;10.00;99.90
5358;DHT22;2702;51.014;7.170;2023-03-24T07:41:45;10.00;99.90
5358;DHT22;2702;51.014;7.170;2023-03-24T07:44:11;9.90;99.90
5358;DHT22;2702;51.014;7.170;2023-03-24T07:46:38;10.00;99.90
5358;DHT22;2702;51.014;7.170;2023-03-24T07:49:04;9.90;99.90
5358;DHT22;2702;51.014;7.170;2023-03-24T07:51:31;10.00;99.90
5358;DHT22;2702;51.014;7.170;2023-03-24T07:53:57;10.10;99.90
5358;DHT22;2702;51.014;7.170;2023-03-24T07:56:24;10.10;99.90
5358;DHT22;2702;51.014;7.170;2023-03-24T07:58:50;10.00;99.90
5358;DHT22;2702;51.014;7.170;2023-03-24T08:01:16;10.10;99.90
5358;DHT22;2702;51.014;7.170;2023-03-24T08:03:42;10.10;99.90
5358;DHT22;2702;51.014;7.170;2023-03-24T08:06:09;10.10;99.90
5358;DHT22;2702;51.014;7.170;2023-03-24T08:08:36;10.20;99.90
5358;DHT22;2702;51.014;7.170;2023-03-24T08:11:03;10.20;99.90
5358;DHT22;2702;51.014;7.170;2023-03-24T08:13:29;10.20;99.90
5358;DHT22;2702;51.014;7.170;2023-03-24T08:15:55;10.30;99.90
5358;DHT22;2702;51.014;7.170;2023-03-24T08:18:22;10.30;99.90
5358;DHT22;2702;51.014;7.170;2023-03-24T08:20:49;10.40;99.90
5358;DHT22;2702;51.014;7.170;2023-03-24T08:23:19;10.50;99.90
5358;DHT22;2702;51.014;7.170;2023-03-24T08:25:45;10.60;99.90
5358;DHT22;2702;51.014;7.170;2023-03-24T08:28:12;10.40;99.90
5358;DHT22;2702;51.014;7.170;2023-03-24T08:30:38;10.60;99.90
5358;DHT22;2702;51.014;7.170;2023-03-24T08:33:15;10.70;99.90
5358;DHT22;2702;51.014;7.170;2023-03-24T08:35:41;10.80;99.90
5358;DHT22;2702;51.014;7.170;2023-03-24T08:38:10;10.90;99.90
5358;DHT22;2702;51.014;7.170;2023-03-24T08:40:38;11.20;99.90
5358;DHT22;2702;51.014;7.170;2023-03-24T08:43:07;11.50;99.90
5358;DHT22;2702;51.014;7.170;2023-03-24T08:45:33;11.80;99.90
5358;DHT22;2702;51.014;7.170;2023-03-24T08:48:02;11.90;99.90
5358;DHT22;2702;51.014;7.170;2023-03-24T08:50:32;12.10;99.90
5358;DHT22;2702;51.014;7.170;2023-03-24T08:53:00;12.10;99.90
5358;DHT22;2702;51.014;7.170;2023-03-24T08:55:27;12.00;99.90
5358;DHT22;2702;51.014;7.170;2023-03-24T08:57:53;11.80;99.90
5358;DHT22;2702;51.014;7.170;2023-03-24T09:00:19;11.60;99.90
5358;DHT22;2702;51.014;7.170;2023-03-24T09:02:48;11.40;99.90
5358;DHT22;2702;51.014;7.170;2023-03-24T09:05:14;11.30;99.90
5358;DHT22;2702;51.014;7.170;2023-03-24T09:07:41;11.50;99.90
5358;DHT22;2702;51.014;7.170;2023-03-24T09:10:08;11.60;99.90
5358;DHT22;2702;51.014;7.170;2023-03-24T09:12:35;11.90;99.90
5358;DHT22;2702;51.014;7.170;2023-03-24T09:15:03;11.90;99.90
5358;DHT22;2702;51.014;7.170;2023-03-24T09:17:29;11.80;99.90
5358;DHT22;2702;51.014;7.170;2023-03-24T09:19:55;11.60;99.90
5358;DHT22;2702;51.014;7.170;2023-03-24T09:22:21;11.50;99.90
5358;DHT22;2702;51.014;7.170;2023-03-24T09:24:47;11.50;99.90
5358;DHT22;2702;51.014;7.170;2023-03-24T09:27:14;11.60;99.90
5358;DHT22;2702;51.014;7.170;2023-03-24T09:29:40;11.90;99.90
5358;DHT22;2702;51.014;7.170;2023-03-24T09:32:07;12.00;99.90
5358;DHT22;2702;51.014;7.170;2023-03-24T09:34:32;11.90;99.90
5358;DHT22;2702;51.014;7.170;2023-03-24T09:36:59;12.20;99.90
5358;DHT22;2702;51.014;7.170;2023-03-24T09:39:25;12.00;99.90
5358;DHT22;2702;51.014;7.170;2023-03-24T09:41:53;12.00;99.90
5358;DHT22;2702;51.014;7.170;2023-03-24T09:44:39;12.00;99.90
5358;DHT22;2702;51.014;7.170;2023-03-24T09:49:41;12.30;99.90
5358;DHT22;2702;51.014;7.170;2023-03-24T09:52:11;12.50;99.90
5358;DHT22;2702;51.014;7.170;2023-03-24T09:54:52;12.60;99.90
5358;DHT22;2702;51.014;7.170;2023-03-24T09:57:33;12.50;99.90
5358;DHT22;2702;51.014;7.170;2023-03-24T10:00:18;12.70;99.90
5358;DHT22;2702;51.014;7.170;2023-03-24T10:02:45;12.60;99.90
5358;DHT22;2702;51.014;7.170;2023-03-24T10:05:13;12.70;99.90
5358;DHT22;2702;51.014;7.170;2023-03-24T10:07:49;12.80;99.90
5358;DHT22;2702;51.014;7.170;2023-03-24T10:13:20;12.70;99.90
5358;DHT22;2702;51.014;7.170;2023-03-24T10:16:25;12.70;99.90
5358;DHT22;2702;51.014;7.170;2023-03-24T10:19:09;12.60;99.90
5358;DHT22;2702;51.014;7.170;2023-03-24T10:21:45;12.70;99.90
5358;DHT22;2702;51.014;7.170;2023-03-24T10:24:18;12.80;99.90
5358;DHT22;2702;51.014;7.170;2023-03-24T10:29:31;12.80;99.90
5358;DHT22;2702;51.014;7.170;2023-03-24T10:34:37;12.60;99.90
5358;DHT22;2702;51.014;7.170;2023-03-24T10:37:04;12.00;99.90
5358;DHT22;2702;51.014;7.170;2023-03-24T10:39:31;12.00;99.90
5358;DHT22;2702;51.014;7.170;2023-03-24T10:41:58;12.00;99.90
5358;DHT22;2702;51.014;7.170;2023-03-24T10:44:26;12.00;99.90
5358;DHT22;2702;51.014;7.170;2023-03-24T10:46:55;11.80;99.90
5358;DHT22;2702;51.014;7.170;2023-03-24T10:49:23;11.70;99.90
5358;DHT22;2702;51.014;7.170;2023-03-24T10:51:51;11.70;99.90
5358;DHT22;2702;51.014;7.170;2023-03-24T10:56:47;12.00;99.90
5358;DHT22;2702;51.014;7.170;2023-03-24T10:59:34;12.00;99.90
5358;DHT22;2702;51.014;7.170;2023-03-24T11:02:16;12.10;99.90
5358;DHT22;2702;51.014;7.170;2023-03-24T11:05:16;11.90;99.90
5358;DHT22;2702;51.014;7.170;2023-03-24T11:07:45;11.90;99.90
5358;DHT22;2702;51.014;7.170;2023-03-24T11:15:21;12.00;99.90
5358;DHT22;2702;51.014;7.170;2023-03-24T11:17:57;12.20;99.90
5358;DHT22;2702;51.014;7.170;2023-03-24T11:20:39;12.40;99.90
5358;DHT22;2702;51.014;7.170;2023-03-24T11:23:50;12.40;99.90
5358;DHT22;2702;51.014;7.170;2023-03-24T11:26:14;12.40;99.90
5358;DHT22;2702;51.014;7.170;2023-03-24T11:29:00;12.60;99.90
5358;DHT22;2702;51.014;7.170;2023-03-24T11:31:31;12.70;99.90
5358;DHT22;2702;51.014;7.170;2023-03-24T11:34:20;12.90;99.90
5358;DHT22;2702;51.014;7.170;2023-03-24T11:39:35;13.20;99.90
5358;DHT22;2702;51.014;7.170;2023-03-24T11:42:10;13.10;99.90
5358;DHT22;2702;51.014;7.170;2023-03-24T11:47:11;13.00;99.90
5358;DHT22;2702;51.014;7.170;2023-03-24T11:49:45;13.20;99.90
5358;DHT22;2702;51.014;7.170;2023-03-24T11:52:25;13.50;99.90
5358;DHT22;2702;51.014;7.170;2023-03-24T11:54:53;13.70;99.90
5358;DHT22;2702;51.014;7.170;2023-03-24T11:57:46;13.80;99.90
5358;DHT22;2702;51.014;7.170;2023-03-24T12:00:43;14.00;99.90
5358;DHT22;2702;51.014;7.170;2023-03-24T12:17:31;13.40;99.90
5358;DHT22;2702;51.014;7.170;2023-03-24T12:22:56;13.40;99.90
5358;DHT22;2702;51.014;7.170;2023-03-24T12:26:04;13.30;99.90
5358;DHT22;2702;51.014;7.170;2023-03-24T12:37:22;13.10;99.90
5358;DHT22;2702;51.014;7.170;2023-03-24T12:42:46;13.10;99.90
5358;DHT22;2702;51.014;7.170;2023-03-24T12:50:24;13.40;99.90
5358;DHT22;2702;51.014;7.170;2023-03-24T12:53:26;13.50;99.90
5358;DHT22;2702;51.014;7.170;2023-03-24T12:56:00;13.40;99.90
5358;DHT22;2702;51.014;7.170;2023-03-24T13:12:21;13.40;99.90
5358;DHT22;2702;51.014;7.170;2023-03-24T13:17:50;13.40;99.90
5358;DHT22;2702;51.014;7.170;2023-03-24T13:31:27;13.80;99.90
5358;DHT22;2702;51.014;7.170;2023-03-24T13:33:55;13.80;99.90
5358;DHT22;2702;51.014;7.170;2023-03-24T13:39:04;14.10;99.90
5358;DHT22;2702;51.014;7.170;2023-03-24T13:41:34;14.10;99.90
5358;DHT22;2702;51.014;7.170;2023-03-24T13:44:07;14.10;99.90
5358;DHT22;2702;51.014;7.170;2023-03-24T13:46:40;14.20;99.90
5358;DHT22;2702;51.014;7.170;2023-03-24T13:49:10;14.10;99.90
5358;DHT22;2702;51.014;7.170;2023-03-24T13:51:42;14.20;99.90
5358;DHT22;2702;51.014;7.170;2023-03-24T13:54:20;14.20;99.90
5358;DHT22;2702;51.014;7.170;2023-03-24T13:57:13;14.40;99.90
5358;DHT22;2702;51.014;7.170;2023-03-24T14:02:54;14.90;99.90
5358;DHT22;2702;51.014;7.170;2023-03-24T14:13:19;14.50;99.90
5358;DHT22;2702;51.014;7.170;2023-03-24T14:15:51;14.50;99.90
5358;DHT22;2702;51.014;7.170;2023-03-24T14:25:55;13.80;99.90
5358;DHT22;2702;51.014;7.170;2023-03-24T14:28:29;13.80;99.90
5358;DHT22;2702;51.014;7.170;2023-03-24T14:31:26;13.40;99.90
5358;DHT22;2702;51.014;7.170;2023-03-24T14:36:43;13.00;99.90
5358;DHT22;2702;51.014;7.170;2023-03-24T14:42:00;12.80;99.90
5358;DHT22;2702;51.014;7.170;2023-03-24T14:47:34;12.70;99.90
5358;DHT22;2702;51.014;7.170;2023-03-24T14:50:18;12.50;99.90
5358;DHT22;2702;51.014;7.170;2023-03-24T14:52:59;12.50;99.90
5358;DHT22;2702;51.014;7.170;2023-03-24T14:55:27;12.40;99.90
5358;DHT22;2702;51.014;7.170;2023-03-24T14:58:21;12.40;99.90
5358;DHT22;2702;51.014;7.170;2023-03-24T15:00:54;12.30;99.90
5358;DHT22;2702;51.014;7.170;2023-03-24T15:03:51;12.30;99.90
5358;DHT22;2702;51.014;7.170;2023-03-24T15:06:17;12.20;99.90
5358;DHT22;2702;51.014;7.170;2023-03-24T15:08:54;12.30;99.90
5358;DHT22;2702;51.014;7.170;2023-03-24T15:11:30;12.30;99.90
5358;DHT22;2702;51.014;7.170;2023-03-24T15:13:58;12.60;99.90
5358;DHT22;2702;51.014;7.170;2023-03-24T15:16:29;12.90;99.90
5358;DHT22;2702;51.014;7.170;2023-03-24T15:19:16;13.10;99.90
5358;DHT22;2702;51.014;7.170;2023-03-24T15:21:49;13.30;99.90
5358;DHT22;2702;51.014;7.170;2023-03-24T15:24:23;13.30;99.90
5358;DHT22;2702;51.014;7.170;2023-03-24T15:27:09;13.20;99.90
5358;DHT22;2702;51.014;7.170;2023-03-24T15:29:40;13.20;99.90
5358;DHT22;2702;51.014;7.170;2023-03-24T15:32:18;13.30;99.90
5358;DHT22;2702;51.014;7.170;2023-03-24T15:34:57;13.40;99.90
5358;DHT22;2702;51.014;7.170;2023-03-24T15:37:30;13.40;99.90
5358;DHT22;2702;51.014;7.170;2023-03-24T15:39:57;13.40;99.90
5358;DHT22;2702;51.014;7.170;2023-03-24T15:42:24;13.40;99.90
5358;DHT22;2702;51.014;7.170;2023-03-24T15:44:51;13.40;99.90
5358;DHT22;2702;51.014;7.170;2023-03-24T15:47:23;13.30;99.90
5358;DHT22;2702;51.014;7.170;2023-03-24T15:49:55;13.50;99.90
5358;DHT22;2702;51.014;7.170;2023-03-24T15:52:34;13.40;99.90
5358;DHT22;2702;51.014;7.170;2023-03-24T15:57:49;13.20;99.90
5358;DHT22;2702;51.014;7.170;2023-03-24T16:00:17;13.20;99.90
5358;DHT22;2702;51.014;7.170;2023-03-24T16:02:52;13.30;99.90
5358;DHT22;2702;51.014;7.170;2023-03-24T16:05:24;13.40;99.90
5358;DHT22;2702;51.014;7.170;2023-03-24T16:08:22;13.40;99.90
5358;DHT22;2702;51.014;7.170;2023-03-24T16:11:01;13.40;99.90
5358;DHT22;2702;51.014;7.170;2023-03-24T16:13:29;13.40;99.90
5358;DHT22;2702;51.014;7.170;2023-03-24T16:16:00;13.40;99.90
5358;DHT22;2702;51.014;7.170;2023-03-24T16:20:51;13.30;99.90
5358;DHT22;2702;51.014;7.170;2023-03-24T16:23:17;13.30;99.90
5358;DHT22;2702;51.014;7.170;2023-03-24T16:25:43;13.30;99.90
5358;DHT22;2702;51.014;7.170;2023-03-24T16:28:17;13.20;99.90
5358;DHT22;2702;51.014;7.170;2023-03-24T16:30:43;13.30;99.90
5358;DHT22;2702;51.014;7.170;2023-03-24T16:33:10;12.90;99.90
5358;DHT22;2702;51.014;7.170;2023-03-24T16:35:37;11.90;99.90
5358;DHT22;2702;51.014;7.170;2023-03-24T16:38:03;11.20;99.90
5358;DHT22;2702;51.014;7.170;2023-03-24T16:40:44;11.10;99.90
5358;DHT22;2702;51.014;7.170;2023-03-24T16:43:11;11.30;99.90
5358;DHT22;2702;51.014;7.170;2023-03-24T16:45:36;11.20;99.90
5358;DHT22;2702;51.014;7.170;2023-03-24T16:48:02;11.00;99.90
5358;DHT22;2702;51.014;7.170;2023-03-24T16:50:32;10.80;99.90
5358;DHT22;2702;51.014;7.170;2023-03-24T16:52:59;10.50;99.90
5358;DHT22;2702;51.014;7.170;2023-03-24T16:55:26;10.40;99.90
5358;DHT22;2702;51.014;7.170;2023-03-24T16:57:52;10.30;99.90
5358;DHT22;2702;51.014;7.170;2023-03-24T17:00:18;10.20;99.90
5358;DHT22;2702;51.014;7.170;2023-03-24T17:02:43;10.20;99.90
5358;DHT22;2702;51.014;7.170;2023-03-24T17:05:21;10.10;99.90
5358;DHT22;2702;51.014;7.170;2023-03-24T17:07:47;10.00;99.90
5358;DHT22;2702;51.014;7.170;2023-03-24T17:10:13;10.10;99.90
5358;DHT22;2702;51.014;7.170;2023-03-24T17:12:39;10.20;99.90
5358;DHT22;2702;51.014;7.170;2023-03-24T17:15:08;10.30;99.90
5358;DHT22;2702;51.014;7.170;2023-03-24T17:17:39;10.40;99.90
5358;DHT22;2702;51.014;7.170;2023-03-24T17:20:05;10.60;99.90
5358;DHT22;2702;51.014;7.170;2023-03-24T17:22:31;10.70;99.90
5358;DHT22;2702;51.014;7.170;2023-03-24T17:24:57;10.90;99.90
5358;DHT22;2702;51.014;7.170;2023-03-24T17:27:23;11.00;99.90
5358;DHT22;2702;51.014;7.170;2023-03-24T17:29:49;11.00;99.90
5358;DHT22;2702;51.014;7.170;2023-03-24T17:32:15;10.80;99.90
5358;DHT22;2702;51.014;7.170;2023-03-24T17:34:41;10.80;99.90
5358;DHT22;2702;51.014;7.170;2023-03-24T17:37:07;10.80;99.90
5358;DHT22;2702;51.014;7.170;2023-03-24T17:39:33;10.80;99.90
5358;DHT22;2702;51.014;7.170;2023-03-24T17:41:59;10.80;99.90
5358;DHT22;2702;51.014;7.170;2023-03-24T17:44:26;10.80;99.90
5358;DHT22;2702;51.014;7.170;2023-03-24T17:46:52;10.90;99.90
5358;DHT22;2702;51.014;7.170;2023-03-24T17:49:18;11.10;99.90
5358;DHT22;2702;51.014;7.170;2023-03-24T17:51:44;11.10;99.90
5358;DHT22;2702;51.014;7.170;2023-03-24T17:54:10;11.00;99.90
5358;DHT22;2702;51.014;7.170;2023-03-24T17:56:37;11.10;99.90
5358;DHT22;2702;51.014;7.170;2023-03-24T17:59:02;11.10;99.90
5358;DHT22;2702;51.014;7.170;2023-03-24T18:01:29;11.10;99.90
5358;DHT22;2702;51.014;7.170;2023-03-24T18:03:56;11.00;99.90
5358;DHT22;2702;51.014;7.170;2023-03-24T18:06:22;11.00;99.90
5358;DHT22;2702;51.014;7.170;2023-03-24T18:08:50;11.00;99.90
5358;DHT22;2702;51.014;7.170;2023-03-24T18:11:16;11.00;99.90
5358;DHT22;2702;51.014;7.170;2023-03-24T18:13:42;11.00;99.90
5358;DHT22;2702;51.014;7.170;2023-03-24T18:16:08;10.90;99.90
5358;DHT22;2702;51.014;7.170;2023-03-24T18:18:36;10.80;99.90
5358;DHT22;2702;51.014;7.170;2023-03-24T18:21:06;10.70;99.90
5358;DHT22;2702;51.014;7.170;2023-03-24T18:23:35;10.60;99.90
5358;DHT22;2702;51.014;7.170;2023-03-24T18:26:04;10.50;99.90
5358;DHT22;2702;51.014;7.170;2023-03-24T18:28:34;10.40;99.90
5358;DHT22;2702;51.014;7.170;2023-03-24T18:31:02;10.20;99.90
5358;DHT22;2702;51.014;7.170;2023-03-24T18:33:30;10.00;99.90
5358;DHT22;2702;51.014;7.170;2023-03-24T18:35:57;9.90;99.90
5358;DHT22;2702;51.014;7.170;2023-03-24T18:38:24;9.80;99.90
5358;DHT22;2702;51.014;7.170;2023-03-24T18:41:10;9.80;99.90
5358;DHT22;2702;51.014;7.170;2023-03-24T18:43:37;9.80;99.90
5358;DHT22;2702;51.014;7.170;2023-03-24T18:46:06;9.80;99.90
5358;DHT22;2702;51.014;7.170;2023-03-24T18:48:38;9.70;99.90
5358;DHT22;2702;51.014;7.170;2023-03-24T18:51:05;9.70;99.90
5358;DHT22;2702;51.014;7.170;2023-03-24T18:53:31;9.70;99.90
5358;DHT22;2702;51.014;7.170;2023-03-24T18:55:59;9.80;99.90
5358;DHT22;2702;51.014;7.170;2023-03-24T18:58:26;9.80;99.90
5358;DHT22;2702;51.014;7.170;2023-03-24T19:00:54;9.90;99.90
5358;DHT22;2702;51.014;7.170;2023-03-24T19:03:21;9.90;99.90
5358;DHT22;2702;51.014;7.170;2023-03-24T19:05:48;9.90;99.90
5358;DHT22;2702;51.014;7.170;2023-03-24T19:08:21;9.90;99.90
5358;DHT22;2702;51.014;7.170;2023-03-24T19:10:47;9.90;99.90